KDUA/DUA METAR and TAF weather

Enter ICAO airport designator
Station Type Date Time Source
KDUA METAR 2020/07/13 14:35 UTC NOAA

KDUA 131435Z AUTO 08008KT 10SM SCT110 28/25 A2993 RMK AO2


Station Type Date Time Source
KDUA Decoded METAR 2020/07/13 14:35 UTC NOAA

Durant, Eaker Field Airport, OK, United States (KDUA) 33-56-32N 096-23-40W
Jul 13, 2020 - 10:35 AM EDT / 2020.07.13 1435 UTC
Wind: from the E (080 degrees) at 9 MPH (8 KT):0
Visibility: 10 mile(s):0
Sky conditions: partly cloudy
Temperature: 82 F (28 C)
Dew Point: 77 F (25 C)
Relative Humidity: 83%
Pressure (altimeter): 29.93 in. Hg (1013 hPa)
ob: KDUA 131435Z AUTO 08008KT 10SM SCT110 28/25 A2993 RMK AO2
cycle: 14

Station Type Date Time Source
KDUA TAF UTC NOAA

Error!

Example: see airport list